sensor_id;sensor_type;location;lat;lon;timestamp;pressure;altitude;pressure_sealevel;temperature;humidity
3142;BME280;1581;51.568;6.998;2023-03-20T00:02:00;101215.78;;;10.30;100.00
3142;BME280;1581;51.568;6.998;2023-03-20T00:04:29;101211.88;;;10.18;100.00
3142;BME280;1581;51.568;6.998;2023-03-20T00:06:57;101215.44;;;10.33;100.00
3142;BME280;1581;51.568;6.998;2023-03-20T00:09:24;101222.22;;;10.35;100.00
3142;BME280;1581;51.568;6.998;2023-03-20T00:11:53;101219.09;;;10.32;100.00
3142;BME280;1581;51.568;6.998;2023-03-20T00:14:22;101211.88;;;10.18;100.00
3142;BME280;1581;51.568;6.998;2023-03-20T00:16:51;101216.69;;;9.76;100.00
3142;BME280;1581;51.568;6.998;2023-03-20T00:19:21;101213.13;;;9.92;100.00
3142;BME280;1581;51.568;6.998;2023-03-20T00:21:53;101213.13;;;10.00;100.00
3142;BME280;1581;51.568;6.998;2023-03-20T00:24:22;101213.53;;;10.11;100.00
3142;BME280;1581;51.568;6.998;2023-03-20T00:26:51;101212.88;;;9.71;100.00
3142;BME280;1581;51.568;6.998;2023-03-20T00:29:22;101209.69;;;9.75;100.00
3142;BME280;1581;51.568;6.998;2023-03-20T00:31:52;101219.34;;;9.68;100.00
3142;BME280;1581;51.568;6.998;2023-03-20T00:34:22;101228.09;;;9.93;100.00
3142;BME280;1581;51.568;6.998;2023-03-20T00:36:52;101227.25;;;10.00;100.00
3142;BME280;1581;51.568;6.998;2023-03-20T00:39:21;101226.91;;;9.95;100.00
3142;BME280;1581;51.568;6.998;2023-03-20T00:41:52;101227.72;;;9.49;100.00
3142;BME280;1581;51.568;6.998;2023-03-20T00:44:23;101223.22;;;9.50;100.00
3142;BME280;1581;51.568;6.998;2023-03-20T00:46:54;101212.56;;;9.58;100.00
3142;BME280;1581;51.568;6.998;2023-03-20T00:49:26;101219.25;;;9.46;100.00
3142;BME280;1581;51.568;6.998;2023-03-20T00:51:56;101223.06;;;9.51;100.00
3142;BME280;1581;51.568;6.998;2023-03-20T00:54:24;101219.25;;;9.46;100.00
3142;BME280;1581;51.568;6.998;2023-03-20T00:56:56;101213.88;;;9.70;100.00
3142;BME280;1581;51.568;6.998;2023-03-20T00:59:28;101215.75;;;9.45;100.00
3142;BME280;1581;51.568;6.998;2023-03-20T01:01:57;101206.59;;;9.48;100.00
3142;BME280;1581;51.568;6.998;2023-03-20T01:04:33;101210.59;;;9.52;100.00
3142;BME280;1581;51.568;6.998;2023-03-20T01:07:04;101216.28;;;9.41;100.00
3142;BME280;1581;51.568;6.998;2023-03-20T01:09:32;101215.28;;;9.42;100.00
3142;BME280;1581;51.568;6.998;2023-03-20T01:12:00;101214.44;;;9.41;100.00
3142;BME280;1581;51.568;6.998;2023-03-20T01:14:28;101217.59;;;9.53;100.00
3142;BME280;1581;51.568;6.998;2023-03-20T01:16:56;101204.25;;;9.61;100.00
3142;BME280;1581;51.568;6.998;2023-03-20T01:19:24;101213.59;;;9.49;100.00
3142;BME280;1581;51.568;6.998;2023-03-20T01:21:52;101214.63;;;9.40;100.00
3142;BME280;1581;51.568;6.998;2023-03-20T01:24:21;101200.66;;;9.38;100.00
3142;BME280;1581;51.568;6.998;2023-03-20T01:26:48;101204.91;;;9.55;100.00
3142;BME280;1581;51.568;6.998;2023-03-20T01:29:20;101204.28;;;9.45;100.00
3142;BME280;1581;51.568;6.998;2023-03-20T01:31:49;101215.41;;;9.56;100.00
3142;BME280;1581;51.568;6.998;2023-03-20T01:34:17;101219.75;;;9.41;100.00
3142;BME280;1581;51.568;6.998;2023-03-20T01:36:49;101225.78;;;9.28;100.00
3142;BME280;1581;51.568;6.998;2023-03-20T01:39:20;101227.94;;;9.32;100.00
3142;BME280;1581;51.568;6.998;2023-03-20T01:41:51;101222.81;;;9.77;100.00
3142;BME280;1581;51.568;6.998;2023-03-20T01:44:27;101229.38;;;9.50;100.00
3142;BME280;1581;51.568;6.998;2023-03-20T01:46:55;101220.25;;;9.53;100.00
3142;BME280;1581;51.568;6.998;2023-03-20T01:50:13;101216.84;;;9.67;100.00
3142;BME280;1581;51.568;6.998;2023-03-20T01:52:45;101204.91;;;9.55;100.00
3142;BME280;1581;51.568;6.998;2023-03-20T01:55:16;101207.13;;;9.43;100.00
3142;BME280;1581;51.568;6.998;2023-03-20T01:57:44;101214.41;;;9.49;100.00
3142;BME280;1581;51.568;6.998;2023-03-20T02:00:15;101214.59;;;9.48;100.00
3142;BME280;1581;51.568;6.998;2023-03-20T02:02:45;101210.34;;;9.77;100.00
3142;BME280;1581;51.568;6.998;2023-03-20T02:05:18;101208.00;;;9.82;100.00
3142;BME280;1581;51.568;6.998;2023-03-20T02:07:58;101215.00;;;9.75;100.00
3142;BME280;1581;51.568;6.998;2023-03-20T02:10:30;101207.25;;;9.58;100.00
3142;BME280;1581;51.568;6.998;2023-03-20T02:12:59;101216.72;;;9.52;100.00
3142;BME280;1581;51.568;6.998;2023-03-20T02:15:30;101227.47;;;9.83;100.00
3142;BME280;1581;51.568;6.998;2023-03-20T02:17:58;101229.03;;;10.08;100.00
3142;BME280;1581;51.568;6.998;2023-03-20T02:20:36;101229.00;;;10.16;100.00
3142;BME280;1581;51.568;6.998;2023-03-20T02:26:46;101223.06;;;10.06;100.00
3142;BME280;1581;51.568;6.998;2023-03-20T02:29:58;101215.16;;;9.82;100.00
3142;BME280;1581;51.568;6.998;2023-03-20T02:42:31;101226.56;;;9.36;100.00
3142;BME280;1581;51.568;6.998;2023-03-20T02:45:13;101237.72;;;9.47;100.00
3142;BME280;1581;51.568;6.998;2023-03-20T02:47:49;101241.22;;;9.40;100.00
3142;BME280;1581;51.568;6.998;2023-03-20T02:50:26;101233.72;;;9.43;100.00
3142;BME280;1581;51.568;6.998;2023-03-20T02:53:08;101232.06;;;9.35;100.00
3142;BME280;1581;51.568;6.998;2023-03-20T02:55:45;101227.56;;;9.51;100.00
3142;BME280;1581;51.568;6.998;2023-03-20T02:58:19;101226.91;;;9.41;100.00
3142;BME280;1581;51.568;6.998;2023-03-20T03:00:54;101228.94;;;9.31;100.00
3142;BME280;1581;51.568;6.998;2023-03-20T03:03:31;101227.72;;;9.41;100.00
3142;BME280;1581;51.568;6.998;2023-03-20T03:06:05;101226.94;;;9.33;100.00
3142;BME280;1581;51.568;6.998;2023-03-20T03:08:39;101232.06;;;9.42;100.00
3142;BME280;1581;51.568;6.998;2023-03-20T03:11:10;101238.06;;;9.37;100.00
3142;BME280;1581;51.568;6.998;2023-03-20T03:13:42;101235.72;;;9.41;100.00
3142;BME280;1581;51.568;6.998;2023-03-20T03:16:16;101224.41;;;9.39;100.00
3142;BME280;1581;51.568;6.998;2023-03-20T03:18:46;101206.81;;;9.23;100.00
3142;BME280;1581;51.568;6.998;2023-03-20T03:21:17;101201.78;;;9.51;100.00
3142;BME280;1581;51.568;6.998;2023-03-20T03:23:47;101200.66;;;9.30;100.00
3142;BME280;1581;51.568;6.998;2023-03-20T03:26:20;101201.03;;;9.19;100.00
3142;BME280;1581;51.568;6.998;2023-03-20T03:28:54;101189.69;;;9.25;100.00
3142;BME280;1581;51.568;6.998;2023-03-20T03:31:24;101172.53;;;9.43;100.00
3142;BME280;1581;51.568;6.998;2023-03-20T03:33:56;101169.41;;;9.40;100.00
3142;BME280;1581;51.568;6.998;2023-03-20T03:36:35;101161.44;;;9.32;100.00
3142;BME280;1581;51.568;6.998;2023-03-20T03:39:16;101166.19;;;9.52;100.00
3142;BME280;1581;51.568;6.998;2023-03-20T03:41:52;101184.19;;;9.42;100.00
3142;BME280;1581;51.568;6.998;2023-03-20T03:44:26;101170.69;;;9.52;100.00
3142;BME280;1581;51.568;6.998;2023-03-20T03:47:00;101181.09;;;9.69;100.00
3142;BME280;1581;51.568;6.998;2023-03-20T03:49:32;101188.91;;;9.71;100.00
3142;BME280;1581;51.568;6.998;2023-03-20T03:52:07;101201.75;;;9.67;100.00
3142;BME280;1581;51.568;6.998;2023-03-20T03:54:40;101212.59;;;9.50;100.00
3142;BME280;1581;51.568;6.998;2023-03-20T03:57:14;101210.34;;;9.77;100.00
3142;BME280;1581;51.568;6.998;2023-03-20T03:59:47;101215.13;;;9.36;100.00
3142;BME280;1581;51.568;6.998;2023-03-20T04:02:18;101218.22;;;9.55;100.00
3142;BME280;1581;51.568;6.998;2023-03-20T04:04:50;101220.78;;;9.25;100.00
3142;BME280;1581;51.568;6.998;2023-03-20T04:07:20;101216.47;;;9.24;100.00
3142;BME280;1581;51.568;6.998;2023-03-20T04:09:47;101211.84;;;9.18;100.00
3142;BME280;1581;51.568;6.998;2023-03-20T04:12:34;101213.81;;;9.16;100.00
3142;BME280;1581;51.568;6.998;2023-03-20T04:15:04;101212.19;;;9.07;100.00
3142;BME280;1581;51.568;6.998;2023-03-20T04:17:32;101201.03;;;9.19;100.00
3142;BME280;1581;51.568;6.998;2023-03-20T04:20:00;101199.69;;;9.31;100.00
3142;BME280;1581;51.568;6.998;2023-03-20T04:22:28;101190.66;;;9.48;100.00
3142;BME280;1581;51.568;6.998;2023-03-20T04:24:56;101183.75;;;9.23;100.00
3142;BME280;1581;51.568;6.998;2023-03-20T04:27:25;101179.75;;;9.19;100.00
3142;BME280;1581;51.568;6.998;2023-03-20T04:29:53;101192.03;;;9.20;100.00
3142;BME280;1581;51.568;6.998;2023-03-20T04:32:21;101183.09;;;9.13;100.00
3142;BME280;1581;51.568;6.998;2023-03-20T04:34:48;101181.75;;;9.09;100.00
3142;BME280;1581;51.568;6.998;2023-03-20T04:37:17;101187.41;;;9.06;100.00
3142;BME280;1581;51.568;6.998;2023-03-20T04:39:45;101186.06;;;8.94;100.00
3142;BME280;1581;51.568;6.998;2023-03-20T04:42:13;101177.28;;;9.02;100.00
3142;BME280;1581;51.568;6.998;2023-03-20T04:44:42;101162.69;;;8.82;100.00
3142;BME280;1581;51.568;6.998;2023-03-20T04:47:09;101156.84;;;9.02;100.00
3142;BME280;1581;51.568;6.998;2023-03-20T04:49:37;101154.88;;;8.80;100.00
3142;BME280;1581;51.568;6.998;2023-03-20T04:52:05;101139.59;;;8.74;100.00
3142;BME280;1581;51.568;6.998;2023-03-20T04:54:32;101145.41;;;8.70;100.00
3142;BME280;1581;51.568;6.998;2023-03-20T04:57:00;101155.38;;;8.76;100.00
3142;BME280;1581;51.568;6.998;2023-03-20T04:59:27;101162.84;;;8.64;100.00
3142;BME280;1581;51.568;6.998;2023-03-20T05:01:56;101168.19;;;8.72;100.00
3142;BME280;1581;51.568;6.998;2023-03-20T05:04:24;101164.50;;;8.65;100.00
3142;BME280;1581;51.568;6.998;2023-03-20T05:06:52;101158.03;;;8.52;100.00
3142;BME280;1581;51.568;6.998;2023-03-20T05:09:20;101164.00;;;8.70;100.00
3142;BME280;1581;51.568;6.998;2023-03-20T05:11:48;101167.16;;;8.57;100.00
3142;BME280;1581;51.568;6.998;2023-03-20T05:14:16;101166.84;;;8.60;100.00
3142;BME280;1581;51.568;6.998;2023-03-20T05:16:44;101169.00;;;8.57;100.00
3142;BME280;1581;51.568;6.998;2023-03-20T05:19:13;101167.00;;;8.75;100.00
3142;BME280;1581;51.568;6.998;2023-03-20T05:21:41;101170.16;;;8.62;100.00
3142;BME280;1581;51.568;6.998;2023-03-20T05:24:08;101175.97;;;8.58;100.00
3142;BME280;1581;51.568;6.998;2023-03-20T05:26:36;101170.81;;;8.41;100.00
3142;BME280;1581;51.568;6.998;2023-03-20T05:29:04;101186.75;;;8.49;100.00
3142;BME280;1581;51.568;6.998;2023-03-20T05:31:31;101186.91;;;8.63;100.00
3142;BME280;1581;51.568;6.998;2023-03-20T05:33:59;101185.41;;;8.84;100.00
3142;BME280;1581;51.568;6.998;2023-03-20T05:36:28;101182.44;;;8.48;100.00
3142;BME280;1581;51.568;6.998;2023-03-20T05:38:56;101184.41;;;8.38;100.00
3142;BME280;1581;51.568;6.998;2023-03-20T05:41:24;101179.94;;;8.46;100.00
3142;BME280;1581;51.568;6.998;2023-03-20T05:43:52;101180.59;;;8.40;100.00
3142;BME280;1581;51.568;6.998;2023-03-20T05:46:19;101179.44;;;8.58;100.00
3142;BME280;1581;51.568;6.998;2023-03-20T05:48:47;101177.78;;;8.57;100.00
3142;BME280;1581;51.568;6.998;2023-03-20T05:51:15;101194.56;;;8.58;100.00
3142;BME280;1581;51.568;6.998;2023-03-20T05:53:44;101189.22;;;8.34;100.00
3142;BME280;1581;51.568;6.998;2023-03-20T05:56:12;101188.53;;;8.32;100.00
3142;BME280;1581;51.568;6.998;2023-03-20T05:58:39;101194.34;;;8.36;100.00
3142;BME280;1581;51.568;6.998;2023-03-20T06:01:08;101182.25;;;8.33;100.00
3142;BME280;1581;51.568;6.998;2023-03-20T06:03:37;101179.41;;;8.27;100.00
3142;BME280;1581;51.568;6.998;2023-03-20T06:06:06;101171.31;;;8.36;100.00
3142;BME280;1581;51.568;6.998;2023-03-20T06:08:33;101186.84;;;8.15;100.00
3142;BME280;1581;51.568;6.998;2023-03-20T06:11:04;101184.41;;;8.30;100.00
3142;BME280;1581;51.568;6.998;2023-03-20T06:13:32;101187.41;;;8.51;100.00
3142;BME280;1581;51.568;6.998;2023-03-20T06:16:00;101191.06;;;8.50;100.00
3142;BME280;1581;51.568;6.998;2023-03-20T06:18:28;101194.53;;;8.50;100.00
3142;BME280;1581;51.568;6.998;2023-03-20T06:20:57;101194.03;;;8.39;100.00
3142;BME280;1581;51.568;6.998;2023-03-20T06:23:24;101192.38;;;8.46;100.00
3142;BME280;1581;51.568;6.998;2023-03-20T06:25:52;101195.72;;;8.55;100.00
3142;BME280;1581;51.568;6.998;2023-03-20T06:28:21;101195.06;;;8.77;100.00
3142;BME280;1581;51.568;6.998;2023-03-20T06:30:51;101205.34;;;8.96;100.00
3142;BME280;1581;51.568;6.998;2023-03-20T06:33:19;101207.53;;;8.93;100.00
3142;BME280;1581;51.568;6.998;2023-03-20T06:35:47;101207.53;;;8.77;100.00
3142;BME280;1581;51.568;6.998;2023-03-20T06:38:15;101213.97;;;8.51;100.00
3142;BME280;1581;51.568;6.998;2023-03-20T06:40:43;101211.50;;;8.73;100.00
3142;BME280;1581;51.568;6.998;2023-03-20T06:43:11;101222.94;;;8.73;100.00
3142;BME280;1581;51.568;6.998;2023-03-20T06:45:40;101209.16;;;8.70;100.00
3142;BME280;1581;51.568;6.998;2023-03-20T06:48:08;101220.81;;;8.85;100.00
3142;BME280;1581;51.568;6.998;2023-03-20T06:50:36;101224.78;;;9.05;100.00
3142;BME280;1581;51.568;6.998;2023-03-20T06:53:04;101229.63;;;9.01;100.00
3142;BME280;1581;51.568;6.998;2023-03-20T06:55:31;101225.63;;;9.05;100.00
3142;BME280;1581;51.568;6.998;2023-03-20T06:57:59;101229.09;;;9.14;100.00
3142;BME280;1581;51.568;6.998;2023-03-20T07:00:27;101222.97;;;8.89;100.00
3142;BME280;1581;51.568;6.998;2023-03-20T07:02:56;101234.44;;;8.98;100.00
3142;BME280;1581;51.568;6.998;2023-03-20T07:05:24;101230.09;;;8.65;100.00
3142;BME280;1581;51.568;6.998;2023-03-20T07:07:52;101233.56;;;8.65;100.00
3142;BME280;1581;51.568;6.998;2023-03-20T07:10:20;101237.25;;;8.80;100.00
3142;BME280;1581;51.568;6.998;2023-03-20T07:12:48;101235.75;;;8.86;100.00
3142;BME280;1581;51.568;6.998;2023-03-20T07:15:16;101226.13;;;8.77;100.00
3142;BME280;1581;51.568;6.998;2023-03-20T07:17:44;101240.72;;;8.73;100.00
3142;BME280;1581;51.568;6.998;2023-03-20T07:20:14;101238.09;;;9.05;100.00
3142;BME280;1581;51.568;6.998;2023-03-20T07:22:42;101243.53;;;9.35;100.00
3142;BME280;1581;51.568;6.998;2023-03-20T07:25:10;101245.72;;;9.00;100.00
3142;BME280;1581;51.568;6.998;2023-03-20T07:27:38;101245.72;;;8.92;100.00
3142;BME280;1581;51.568;6.998;2023-03-20T07:30:07;101246.38;;;8.94;100.00
3142;BME280;1581;51.568;6.998;2023-03-20T07:32:35;101252.69;;;9.25;100.00
3142;BME280;1581;51.568;6.998;2023-03-20T07:35:03;101266.47;;;9.04;100.00
3142;BME280;1581;51.568;6.998;2023-03-20T07:37:32;101253.53;;;9.09;100.00
3142;BME280;1581;51.568;6.998;2023-03-20T07:40:00;101253.81;;;9.46;100.00
3142;BME280;1581;51.568;6.998;2023-03-20T07:42:27;101259.41;;;9.83;100.00
3142;BME280;1581;51.568;6.998;2023-03-20T07:44:55;101259.59;;;9.73;100.00
3142;BME280;1581;51.568;6.998;2023-03-20T07:47:23;101246.69;;;9.46;100.00
3142;BME280;1581;51.568;6.998;2023-03-20T07:49:50;101256.66;;;10.07;100.00
3142;BME280;1581;51.568;6.998;2023-03-20T07:52:18;101263.53;;;9.93;100.00
3142;BME280;1581;51.568;6.998;2023-03-20T07:54:47;101267.75;;;9.64;100.00
3142;BME280;1581;51.568;6.998;2023-03-20T07:57:15;101266.13;;;10.09;100.00
3142;BME280;1581;51.568;6.998;2023-03-20T07:59:43;101270.06;;;9.83;100.00
3142;BME280;1581;51.568;6.998;2023-03-20T08:02:14;101265.47;;;10.15;100.00
3142;BME280;1581;51.568;6.998;2023-03-20T08:04:42;101262.09;;;10.21;100.00
3142;BME280;1581;51.568;6.998;2023-03-20T08:07:10;101269.69;;;10.32;100.00
3142;BME280;1581;51.568;6.998;2023-03-20T08:09:38;101266.66;;;10.13;100.00
3142;BME280;1581;51.568;6.998;2023-03-20T08:12:08;101270.88;;;10.60;100.00
3142;BME280;1581;51.568;6.998;2023-03-20T08:14:35;101272.47;;;10.16;100.00
3142;BME280;1581;51.568;6.998;2023-03-20T08:17:04;101272.84;;;10.05;100.00
3142;BME280;1581;51.568;6.998;2023-03-20T08:19:32;101270.13;;;10.13;100.00
3142;BME280;1581;51.568;6.998;2023-03-20T08:22:01;101275.03;;;10.32;100.00
3142;BME280;1581;51.568;6.998;2023-03-20T08:24:29;101269.13;;;10.52;100.00
3142;BME280;1581;51.568;6.998;2023-03-20T08:26:57;101276.91;;;10.54;100.00
3142;BME280;1581;51.568;6.998;2023-03-20T08:29:26;101282.00;;;10.63;100.00
3142;BME280;1581;51.568;6.998;2023-03-20T08:31:55;101279.44;;;10.47;100.00
3142;BME280;1581;51.568;6.998;2023-03-20T08:34:23;101276.13;;;10.76;100.00
3142;BME280;1581;51.568;6.998;2023-03-20T08:36:51;101290.31;;;11.13;100.00
3142;BME280;1581;51.568;6.998;2023-03-20T08:39:19;101283.63;;;10.42;100.00
3142;BME280;1581;51.568;6.998;2023-03-20T08:41:47;101281.16;;;10.40;100.00
3142;BME280;1581;51.568;6.998;2023-03-20T08:44:15;101280.84;;;10.66;100.00
3142;BME280;1581;51.568;6.998;2023-03-20T08:46:44;101274.81;;;10.94;100.00
3142;BME280;1581;51.568;6.998;2023-03-20T08:49:12;101281.06;;;10.79;100.00
3142;BME280;1581;51.568;6.998;2023-03-20T08:51:40;101277.13;;;10.97;100.00
3142;BME280;1581;51.568;6.998;2023-03-20T08:54:08;101268.69;;;10.63;100.00
3142;BME280;1581;51.568;6.998;2023-03-20T08:56:36;101278.53;;;10.32;100.00
3142;BME280;1581;51.568;6.998;2023-03-20T08:59:04;101276.50;;;10.34;100.00
3142;BME280;1581;51.568;6.998;2023-03-20T09:01:32;101268.94;;;10.76;100.00
3142;BME280;1581;51.568;6.998;2023-03-20T09:04:03;101270.78;;;10.76;100.00
3142;BME280;1581;51.568;6.998;2023-03-20T09:06:34;101274.16;;;10.70;100.00
3142;BME280;1581;51.568;6.998;2023-03-20T09:09:02;101276.34;;;10.66;100.00
3142;BME280;1581;51.568;6.998;2023-03-20T09:11:31;101266.03;;;10.63;100.00
3142;BME280;1581;51.568;6.998;2023-03-20T09:13:59;101274.66;;;10.96;100.00
3142;BME280;1581;51.568;6.998;2023-03-20T09:16:27;101282.47;;;11.34;98.82
3142;BME280;1581;51.568;6.998;2023-03-20T09:18:54;101280.97;;;10.72;98.11
3142;BME280;1581;51.568;6.998;2023-03-20T09:21:24;101271.34;;;10.63;100.00
3142;BME280;1581;51.568;6.998;2023-03-20T09:23:51;101271.44;;;11.00;99.40
3142;BME280;1581;51.568;6.998;2023-03-20T09:26:19;101276.72;;;11.08;97.54
3142;BME280;1581;51.568;6.998;2023-03-20T09:28:47;101281.63;;;10.44;96.92
3142;BME280;1581;51.568;6.998;2023-03-20T09:31:15;101274.81;;;10.72;96.16
3142;BME280;1581;51.568;6.998;2023-03-20T09:33:43;101269.78;;;10.77;96.20
3142;BME280;1581;51.568;6.998;2023-03-20T09:36:11;101280.97;;;10.42;98.22
3142;BME280;1581;51.568;6.998;2023-03-20T09:38:40;101285.44;;;10.49;94.30
3142;BME280;1581;51.568;6.998;2023-03-20T09:41:14;101279.06;;;10.81;93.65
3142;BME280;1581;51.568;6.998;2023-03-20T09:43:57;101282.00;;;10.63;93.96
3142;BME280;1581;51.568;6.998;2023-03-20T09:46:45;101284.28;;;10.74;91.35
3142;BME280;1581;51.568;6.998;2023-03-20T09:49:23;101287.25;;;11.02;92.09
3142;BME280;1581;51.568;6.998;2023-03-20T09:51:56;101291.78;;;11.01;90.14
3142;BME280;1581;51.568;6.998;2023-03-20T09:54:30;101291.59;;;10.50;92.35
3142;BME280;1581;51.568;6.998;2023-03-20T09:57:01;101288.66;;;10.90;92.62
3142;BME280;1581;51.568;6.998;2023-03-20T09:59:32;101293.09;;;10.44;92.78
3142;BME280;1581;51.568;6.998;2023-03-20T10:02:07;101285.94;;;10.75;90.75
3142;BME280;1581;51.568;6.998;2023-03-20T10:04:39;101295.78;;;10.97;89.70
3142;BME280;1581;51.568;6.998;2023-03-20T10:07:10;101292.16;;;11.35;87.53
3142;BME280;1581;51.568;6.998;2023-03-20T10:09:43;101294.91;;;10.82;86.98
3142;BME280;1581;51.568;6.998;2023-03-20T10:12:31;101287.72;;;10.83;88.17
3142;BME280;1581;51.568;6.998;2023-03-20T10:15:09;101288.78;;;10.51;89.56
3142;BME280;1581;51.568;6.998;2023-03-20T10:17:50;101291.53;;;11.11;87.10
3142;BME280;1581;51.568;6.998;2023-03-20T10:20:29;101295.63;;;11.58;85.74
3142;BME280;1581;51.568;6.998;2023-03-20T10:23:05;101282.31;;;11.13;84.41
3142;BME280;1581;51.568;6.998;2023-03-20T10:25:39;101284.22;;;11.27;85.58
3142;BME280;1581;51.568;6.998;2023-03-20T10:28:12;101277.53;;;11.31;87.32
3142;BME280;1581;51.568;6.998;2023-03-20T10:30:55;101281.00;;;11.54;85.26
3142;BME280;1581;51.568;6.998;2023-03-20T10:33:41;101277.25;;;10.81;87.58
3142;BME280;1581;51.568;6.998;2023-03-20T10:36:47;101271.66;;;11.35;87.83
3142;BME280;1581;51.568;6.998;2023-03-20T10:39:36;101271.19;;;11.32;85.93
3142;BME280;1581;51.568;6.998;2023-03-20T10:42:15;101276.03;;;10.31;89.76
3142;BME280;1581;51.568;6.998;2023-03-20T10:44:52;101275.97;;;10.39;90.40
3142;BME280;1581;51.568;6.998;2023-03-20T10:47:24;101266.22;;;11.07;88.01
3142;BME280;1581;51.568;6.998;2023-03-20T10:49:59;101267.81;;;10.71;90.08
3142;BME280;1581;51.568;6.998;2023-03-20T10:52:32;101260.69;;;10.63;88.36
3142;BME280;1581;51.568;6.998;2023-03-20T10:55:06;101268.41;;;11.25;86.56
3142;BME280;1581;51.568;6.998;2023-03-20T10:57:41;101256.88;;;10.88;87.42
3142;BME280;1581;51.568;6.998;2023-03-20T11:00:19;101253.56;;;11.23;85.80
3142;BME280;1581;51.568;6.998;2023-03-20T11:02:48;101259.81;;;11.15;87.45
3142;BME280;1581;51.568;6.998;2023-03-20T11:05:24;101258.28;;;11.58;85.71
3142;BME280;1581;51.568;6.998;2023-03-20T11:08:02;101258.56;;;12.06;84.61
3142;BME280;1581;51.568;6.998;2023-03-20T11:10:31;101257.94;;;11.90;82.62
3142;BME280;1581;51.568;6.998;2023-03-20T11:13:14;101249.56;;;12.28;84.11
3142;BME280;1581;51.568;6.998;2023-03-20T11:15:44;101260.78;;;12.52;81.74
3142;BME280;1581;51.568;6.998;2023-03-20T11:18:13;101249.56;;;12.42;83.00
3142;BME280;1581;51.568;6.998;2023-03-20T11:20:47;101253.38;;;12.54;80.87
3142;BME280;1581;51.568;6.998;2023-03-20T11:23:18;101255.19;;;12.33;80.58
3142;BME280;1581;51.568;6.998;2023-03-20T11:25:51;101253.84;;;12.08;78.94
3142;BME280;1581;51.568;6.998;2023-03-20T11:28:29;101252.78;;;12.02;80.39
3142;BME280;1581;51.568;6.998;2023-03-20T11:31:01;101261.44;;;12.75;79.54
3142;BME280;1581;51.568;6.998;2023-03-20T11:33:30;101258.69;;;11.47;81.95
3142;BME280;1581;51.568;6.998;2023-03-20T11:35:58;101252.41;;;11.25;83.77
3142;BME280;1581;51.568;6.998;2023-03-20T11:38:29;101259.38;;;11.63;84.09
3142;BME280;1581;51.568;6.998;2023-03-20T11:40:58;101251.56;;;11.62;85.35
3142;BME280;1581;51.568;6.998;2023-03-20T11:43:27;101240.91;;;12.40;82.65
3142;BME280;1581;51.568;6.998;2023-03-20T11:45:56;101248.63;;;11.71;81.17
3142;BME280;1581;51.568;6.998;2023-03-20T11:48:37;101240.56;;;11.06;84.79
3142;BME280;1581;51.568;6.998;2023-03-20T11:51:07;101244.09;;;11.20;86.55
3142;BME280;1581;51.568;6.998;2023-03-20T11:53:38;101239.75;;;10.83;89.96
3142;BME280;1581;51.568;6.998;2023-03-20T11:56:10;101243.06;;;10.85;89.21
3142;BME280;1581;51.568;6.998;2023-03-20T11:58:57;101245.22;;;10.36;91.92
3142;BME280;1581;51.568;6.998;2023-03-20T12:01:26;101233.41;;;10.61;93.30
3142;BME280;1581;51.568;6.998;2023-03-20T12:04:02;101237.28;;;10.73;90.57
3142;BME280;1581;51.568;6.998;2023-03-20T12:06:48;101239.31;;;10.94;91.85
3142;BME280;1581;51.568;6.998;2023-03-20T12:09:38;101238.22;;;11.76;86.58
3142;BME280;1581;51.568;6.998;2023-03-20T12:12:18;101236.81;;;11.66;85.68
3142;BME280;1581;51.568;6.998;2023-03-20T12:14:56;101243.47;;;11.70;85.03
3142;BME280;1581;51.568;6.998;2023-03-20T12:17:43;101237.56;;;11.60;85.55
3142;BME280;1581;51.568;6.998;2023-03-20T12:20:28;101237.78;;;11.36;87.09
3142;BME280;1581;51.568;6.998;2023-03-20T12:23:10;101236.09;;;11.20;90.10
3142;BME280;1581;51.568;6.998;2023-03-20T12:25:44;101242.69;;;11.10;91.02
3142;BME280;1581;51.568;6.998;2023-03-20T12:28:23;101233.41;;;11.20;91.80
3142;BME280;1581;51.568;6.998;2023-03-20T12:31:05;101227.66;;;11.46;92.15
3142;BME280;1581;51.568;6.998;2023-03-20T12:33:42;101250.28;;;11.35;91.31
3142;BME280;1581;51.568;6.998;2023-03-20T12:36:17;101234.44;;;11.56;91.84
3142;BME280;1581;51.568;6.998;2023-03-20T12:38:46;101232.56;;;12.00;88.65
3142;BME280;1581;51.568;6.998;2023-03-20T12:41:19;101229.09;;;12.00;88.05
3142;BME280;1581;51.568;6.998;2023-03-20T12:44:26;101232.00;;;12.19;87.79
3142;BME280;1581;51.568;6.998;2023-03-20T12:50:07;101224.88;;;11.25;91.40
3142;BME280;1581;51.568;6.998;2023-03-20T12:52:46;101220.84;;;11.29;93.02
3142;BME280;1581;51.568;6.998;2023-03-20T12:55:34;101222.19;;;11.91;92.36
3142;BME280;1581;51.568;6.998;2023-03-20T12:58:17;101211.72;;;11.23;93.40
3142;BME280;1581;51.568;6.998;2023-03-20T13:00:59;101210.72;;;11.39;94.87
3142;BME280;1581;51.568;6.998;2023-03-20T13:03:52;101214.63;;;11.14;94.18
3142;BME280;1581;51.568;6.998;2023-03-20T13:06:34;101205.97;;;10.53;100.00
3142;BME280;1581;51.568;6.998;2023-03-20T13:09:51;101208.56;;;10.38;100.00
3142;BME280;1581;51.568;6.998;2023-03-20T13:12:36;101208.03;;;11.24;100.00
3142;BME280;1581;51.568;6.998;2023-03-20T13:15:25;101203.50;;;11.91;94.80
3142;BME280;1581;51.568;6.998;2023-03-20T13:18:05;101200.75;;;11.84;96.92
3142;BME280;1581;51.568;6.998;2023-03-20T13:20:44;101201.38;;;11.06;97.52
3142;BME280;1581;51.568;6.998;2023-03-20T13:23:22;101203.81;;;11.30;98.42
3142;BME280;1581;51.568;6.998;2023-03-20T13:26:12;101192.25;;;11.52;97.39
3142;BME280;1581;51.568;6.998;2023-03-20T13:28:54;101193.97;;;11.30;96.65
3142;BME280;1581;51.568;6.998;2023-03-20T13:31:41;101189.13;;;10.97;99.65
3142;BME280;1581;51.568;6.998;2023-03-20T13:34:25;101187.72;;;10.87;100.00
3142;BME280;1581;51.568;6.998;2023-03-20T13:37:11;101188.53;;;11.24;99.14
3142;BME280;1581;51.568;6.998;2023-03-20T13:39:45;101177.59;;;11.19;99.63
3142;BME280;1581;51.568;6.998;2023-03-20T13:42:19;101191.88;;;11.40;100.00
3142;BME280;1581;51.568;6.998;2023-03-20T13:44:49;101189.59;;;11.81;97.79
3142;BME280;1581;51.568;6.998;2023-03-20T13:47:22;101186.97;;;11.44;99.45
3142;BME280;1581;51.568;6.998;2023-03-20T13:49:57;101186.50;;;10.75;100.00
3142;BME280;1581;51.568;6.998;2023-03-20T13:52:34;101183.09;;;10.81;100.00
3142;BME280;1581;51.568;6.998;2023-03-20T13:55:20;101180.25;;;11.19;100.00